FYLZ

Luderitz Airport

Luderitz, Namibia
METAR FYLZ 201500Z AUTO 20025KT //// // ////// 26/16 Q1009
Observed Flight Rules
Feb-20 @ 15:00 UTC (2 hours ago)
Wind
200° at 25 knots
Temperatures Readings
Current 26°C / 79°F
Dewpoint 16°C / 61°F
Humidity 54%
Altimeter 29.79" Hg
Pressure 1009 hPa
Elevation 130
METAR FYLZ 201500Z AUTO 20025KT //// // ////// 26/16 Q1009
Observed Flight Rules
Feb-20 @ 15:00 UTC
(2 hours ago)
Wind
200° at 25 knots
Temperature Dewpoint
26°C / 79°F 16°C / 61°F
Humidity Altimeter Pressure
54% 29.79" Hg 1009 hPa